Impacts METAR Board
IDs:

KHDC - Hammond/Northshore R, LA, US

Updated at: 1100 UTC 20 May 2018
Potential Impact None Slight Moderate High
Time 19/23Z 20/00Z 20/01Z 20/02Z 20/03Z 20/04Z 20/05Z 20/06Z 20/07Z 20/08Z 20/09Z 20/10Z 20/11Z
Temp88 82 79 79 77 77 75 73 73 72 70 70 68
Dewpt68 68 70 72 72 72 72 72 72 72 70 68 68
Altim29.94 29.95 29.97 29.99 30.02 30.04 30.03 30.02 30.02 30.02 30.03 30.03 30.05
VIS10 10 10 10 10 10 10 10 10 7 10 10 7
CIG-- -- -- -- -- -- -- -- -- -- -- -- --
CoverCLRCLRCLRCLRCLRCLRSCTCLRCLRCLRCLRCLRCLR
FltCatVFRVFRVFRVFRVFRVFRVFRVFRVFRVFRVFRVFRVFR
WX--------------------------
WDir180170160170170016014000000
WSpd8 6 4 7 5 0 3 3 0 0 0 0 0
WGst-- -- -- -- -- -- -- -- -- -- -- -- --
Raw hourly METARs
KHDC 192255Z AUTO 18008KT 10SM CLR 31/20 A2994 RMK AO2
KHDC 192355Z AUTO 17006KT 10SM CLR 28/20 A2995 RMK AO2
KHDC 200055Z AUTO 16004KT 10SM CLR 26/21 A2997 RMK AO2
KHDC 200155Z AUTO 17007KT 10SM CLR 26/22 A2999 RMK AO2
KHDC 200255Z AUTO 17005KT 10SM CLR 25/22 A3002 RMK AO2
KHDC 200355Z AUTO 00000KT 10SM CLR 25/22 A3004 RMK AO2 LTG DSNT NE
KHDC 200455Z AUTO 16003KT 10SM SCT110 24/22 A3003 RMK AO2
KHDC 200555Z AUTO 14003KT 10SM CLR 23/22 A3002 RMK AO2 LTG DSNT N AND NE
KHDC 200655Z AUTO 00000KT 10SM CLR 23/22 A3002 RMK AO2 LTG DSNT NE
KHDC 200755Z AUTO 00000KT 7SM CLR 22/22 A3002 RMK AO2 LTG DSNT NE
KHDC 200855Z AUTO 00000KT 10SM CLR 21/21 A3003 RMK AO2
KHDC 200955Z AUTO 00000KT 10SM CLR 21/20 A3003 RMK AO2
KHDC 201055Z AUTO 00000KT 7SM CLR 20/20 A3005 RMK AO2



Page loaded:  11:51 UTC  |   04:51 AM Pacific  |   05:51 AM Mountain  |   06:51 AM Central  |   07:51 AM Eastern

 

ADVISORIES

FORECASTS

FORECASTS

OBSERVATIONS

USER TOOLS

ABOUT US